sensor_id;sensor_type;location;lat;lon;timestamp;pressure;altitude;pressure_sealevel;temperature;humidity
54455;BME280;40364;52.270;10.546;2022-10-16T00:00:31;100154.91;;;19.38;100.00
54455;BME280;40364;52.270;10.546;2022-10-16T00:02:58;100155.34;;;19.37;100.00
54455;BME280;40364;52.270;10.546;2022-10-16T00:05:25;100159.91;;;19.16;100.00
54455;BME280;40364;52.270;10.546;2022-10-16T00:07:52;100142.94;;;19.24;100.00
54455;BME280;40364;52.270;10.546;2022-10-16T00:10:20;100148.09;;;19.32;100.00
54455;BME280;40364;52.270;10.546;2022-10-16T00:12:46;100149.72;;;19.30;100.00
54455;BME280;40364;52.270;10.546;2022-10-16T00:15:14;100149.34;;;19.87;100.00
54455;BME280;40364;52.270;10.546;2022-10-16T00:17:41;100154.56;;;19.33;100.00
54455;BME280;40364;52.270;10.546;2022-10-16T00:20:08;100156.97;;;19.31;100.00
54455;BME280;40364;52.270;10.546;2022-10-16T00:22:36;100159.09;;;19.20;100.00
54455;BME280;40364;52.270;10.546;2022-10-16T00:25:07;100151.66;;;19.50;100.00
54455;BME280;40364;52.270;10.546;2022-10-16T00:27:35;100168.75;;;20.26;100.00
54455;BME280;40364;52.270;10.546;2022-10-16T00:30:03;100162.28;;;19.84;100.00
54455;BME280;40364;52.270;10.546;2022-10-16T00:32:30;100161.50;;;19.83;100.00
54455;BME280;40364;52.270;10.546;2022-10-16T00:34:57;100161.34;;;19.42;100.00
54455;BME280;40364;52.270;10.546;2022-10-16T00:37:24;100167.38;;;19.55;100.00
54455;BME280;40364;52.270;10.546;2022-10-16T00:39:51;100157.63;;;19.60;100.00
54455;BME280;40364;52.270;10.546;2022-10-16T00:42:18;100175.34;;;19.64;100.00
54455;BME280;40364;52.270;10.546;2022-10-16T00:44:50;100176.97;;;19.65;100.00
54455;BME280;40364;52.270;10.546;2022-10-16T00:47:21;100173.66;;;19.07;100.00
54455;BME280;40364;52.270;10.546;2022-10-16T00:49:50;100164.41;;;19.00;100.00
54455;BME280;40364;52.270;10.546;2022-10-16T00:52:18;100187.50;;;18.77;100.00
54455;BME280;40364;52.270;10.546;2022-10-16T00:54:46;100181.75;;;18.98;100.00
54455;BME280;40364;52.270;10.546;2022-10-16T00:57:13;100184.56;;;19.02;100.00
54455;BME280;40364;52.270;10.546;2022-10-16T00:59:41;100180.09;;;19.08;100.00
54455;BME280;40364;52.270;10.546;2022-10-16T01:02:13;100181.97;;;19.36;100.00
54455;BME280;40364;52.270;10.546;2022-10-16T01:04:42;100188.78;;;19.45;100.00
54455;BME280;40364;52.270;10.546;2022-10-16T01:07:14;100188.75;;;19.56;100.00
54455;BME280;40364;52.270;10.546;2022-10-16T01:09:49;100197.22;;;19.56;100.00
54455;BME280;40364;52.270;10.546;2022-10-16T01:12:25;100197.91;;;19.71;100.00
54455;BME280;40364;52.270;10.546;2022-10-16T01:14:58;100189.22;;;19.96;100.00
54455;BME280;40364;52.270;10.546;2022-10-16T01:17:35;100198.38;;;20.14;100.00
54455;BME280;40364;52.270;10.546;2022-10-16T01:20:10;100202.59;;;19.92;100.00
54455;BME280;40364;52.270;10.546;2022-10-16T01:22:45;100196.31;;;19.66;100.00
54455;BME280;40364;52.270;10.546;2022-10-16T01:25:21;100195.63;;;19.44;100.00
54455;BME280;40364;52.270;10.546;2022-10-16T01:27:53;100198.09;;;19.35;100.00
54455;BME280;40364;52.270;10.546;2022-10-16T01:30:23;100194.50;;;19.28;100.00
54455;BME280;40364;52.270;10.546;2022-10-16T01:32:55;100195.94;;;18.88;100.00
54455;BME280;40364;52.270;10.546;2022-10-16T01:35:25;100187.72;;;19.18;100.00
54455;BME280;40364;52.270;10.546;2022-10-16T01:37:57;100176.91;;;19.02;100.00
54455;BME280;40364;52.270;10.546;2022-10-16T01:40:27;100185.84;;;18.90;100.00
54455;BME280;40364;52.270;10.546;2022-10-16T01:42:59;100183.84;;;18.80;100.00
54455;BME280;40364;52.270;10.546;2022-10-16T01:45:28;100197.41;;;19.21;100.00
54455;BME280;40364;52.270;10.546;2022-10-16T01:47:57;100193.75;;;19.24;100.00
54455;BME280;40364;52.270;10.546;2022-10-16T01:50:31;100197.84;;;19.08;100.00
54455;BME280;40364;52.270;10.546;2022-10-16T01:52:59;100199.97;;;18.83;100.00
54455;BME280;40364;52.270;10.546;2022-10-16T01:55:30;100206.41;;;18.83;100.00
54455;BME280;40364;52.270;10.546;2022-10-16T01:58:01;100203.94;;;18.96;100.00
54455;BME280;40364;52.270;10.546;2022-10-16T02:00:30;100198.63;;;19.12;100.00
54455;BME280;40364;52.270;10.546;2022-10-16T02:02:58;100208.69;;;19.21;100.00
54455;BME280;40364;52.270;10.546;2022-10-16T02:05:30;100214.91;;;18.80;100.00
54455;BME280;40364;52.270;10.546;2022-10-16T02:07:58;100222.97;;;18.71;100.00
54455;BME280;40364;52.270;10.546;2022-10-16T02:10:26;100215.28;;;18.86;100.00
54455;BME280;40364;52.270;10.546;2022-10-16T02:12:58;100211.97;;;19.08;100.00
54455;BME280;40364;52.270;10.546;2022-10-16T02:15:28;100216.44;;;18.99;100.00
54455;BME280;40364;52.270;10.546;2022-10-16T02:17:55;100217.28;;;18.92;100.00
54455;BME280;40364;52.270;10.546;2022-10-16T02:20:25;100226.06;;;19.08;100.00
54455;BME280;40364;52.270;10.546;2022-10-16T02:22:54;100218.53;;;18.70;100.00
54455;BME280;40364;52.270;10.546;2022-10-16T02:25:26;100232.25;;;18.50;100.00
54455;BME280;40364;52.270;10.546;2022-10-16T02:28:01;100234.69;;;18.51;100.00
54455;BME280;40364;52.270;10.546;2022-10-16T02:30:34;100237.91;;;18.54;100.00
54455;BME280;40364;52.270;10.546;2022-10-16T02:33:05;100243.91;;;18.80;100.00
54455;BME280;40364;52.270;10.546;2022-10-16T02:38:08;100250.81;;;18.47;100.00
54455;BME280;40364;52.270;10.546;2022-10-16T02:40:36;100249.16;;;18.86;100.00
54455;BME280;40364;52.270;10.546;2022-10-16T02:43:04;100255.63;;;18.50;100.00
54455;BME280;40364;52.270;10.546;2022-10-16T02:45:32;100264.47;;;18.81;100.00
54455;BME280;40364;52.270;10.546;2022-10-16T02:47:59;100252.00;;;18.46;100.00
54455;BME280;40364;52.270;10.546;2022-10-16T02:50:25;100257.69;;;18.25;100.00
54455;BME280;40364;52.270;10.546;2022-10-16T02:52:52;100246.78;;;18.45;100.00
54455;BME280;40364;52.270;10.546;2022-10-16T02:55:19;100245.19;;;18.15;100.00
54455;BME280;40364;52.270;10.546;2022-10-16T02:57:45;100252.44;;;18.31;100.00
54455;BME280;40364;52.270;10.546;2022-10-16T03:00:14;100263.72;;;18.31;100.00
54455;BME280;40364;52.270;10.546;2022-10-16T03:02:42;100259.69;;;18.25;100.00
54455;BME280;40364;52.270;10.546;2022-10-16T03:05:09;100262.09;;;17.91;100.00
54455;BME280;40364;52.270;10.546;2022-10-16T03:07:36;100256.44;;;18.55;100.00
54455;BME280;40364;52.270;10.546;2022-10-16T03:10:04;100254.00;;;18.78;100.00
54455;BME280;40364;52.270;10.546;2022-10-16T03:12:30;100262.47;;;18.46;100.00
54455;BME280;40364;52.270;10.546;2022-10-16T03:14:57;100254.78;;;18.89;100.00
54455;BME280;40364;52.270;10.546;2022-10-16T03:17:24;100253.19;;;18.74;100.00
54455;BME280;40364;52.270;10.546;2022-10-16T03:19:52;100241.41;;;19.07;100.00
54455;BME280;40364;52.270;10.546;2022-10-16T03:22:19;100235.72;;;19.22;100.00
54455;BME280;40364;52.270;10.546;2022-10-16T03:24:46;100242.84;;;19.51;100.00
54455;BME280;40364;52.270;10.546;2022-10-16T03:27:12;100248.94;;;19.32;100.00
54455;BME280;40364;52.270;10.546;2022-10-16T03:29:39;100227.75;;;19.75;100.00
54455;BME280;40364;52.270;10.546;2022-10-16T03:32:06;100236.78;;;19.49;100.00
54455;BME280;40364;52.270;10.546;2022-10-16T03:34:32;100230.75;;;19.50;100.00
54455;BME280;40364;52.270;10.546;2022-10-16T03:37:00;100229.13;;;19.46;100.00
54455;BME280;40364;52.270;10.546;2022-10-16T03:39:27;100241.66;;;19.38;100.00
54455;BME280;40364;52.270;10.546;2022-10-16T03:41:53;100235.72;;;19.22;100.00
54455;BME280;40364;52.270;10.546;2022-10-16T03:44:20;100238.16;;;19.16;100.00
54455;BME280;40364;52.270;10.546;2022-10-16T03:46:47;100242.63;;;19.03;100.00
54455;BME280;40364;52.270;10.546;2022-10-16T03:49:13;100244.66;;;18.99;100.00
54455;BME280;40364;52.270;10.546;2022-10-16T03:51:40;100239.47;;;18.83;100.00
54455;BME280;40364;52.270;10.546;2022-10-16T03:54:09;100231.03;;;18.79;100.00
54455;BME280;40364;52.270;10.546;2022-10-16T03:56:36;100241.47;;;18.86;100.00
54455;BME280;40364;52.270;10.546;2022-10-16T03:59:02;100247.41;;;19.24;100.00
54455;BME280;40364;52.270;10.546;2022-10-16T04:01:29;100247.56;;;18.74;100.00
54455;BME280;40364;52.270;10.546;2022-10-16T04:03:56;100249.16;;;18.71;100.00
54455;BME280;40364;52.270;10.546;2022-10-16T04:06:22;100250.75;;;18.87;100.00
54455;BME280;40364;52.270;10.546;2022-10-16T04:08:49;100242.22;;;18.97;100.00
54455;BME280;40364;52.270;10.546;2022-10-16T04:11:17;100248.25;;;19.10;100.00
54455;BME280;40364;52.270;10.546;2022-10-16T04:13:44;100250.38;;;18.70;100.00
54455;BME280;40364;52.270;10.546;2022-10-16T04:16:10;100251.56;;;18.80;100.00
54455;BME280;40364;52.270;10.546;2022-10-16T04:18:37;100254.78;;;18.82;100.00
54455;BME280;40364;52.270;10.546;2022-10-16T04:21:04;100253.97;;;18.85;100.00
54455;BME280;40364;52.270;10.546;2022-10-16T04:23:32;100249.16;;;18.68;100.00
54455;BME280;40364;52.270;10.546;2022-10-16T04:25:59;100253.66;;;18.62;100.00
54455;BME280;40364;52.270;10.546;2022-10-16T04:28:28;100256.81;;;18.71;100.00
54455;BME280;40364;52.270;10.546;2022-10-16T04:30:55;100254.03;;;18.60;100.00
54455;BME280;40364;52.270;10.546;2022-10-16T04:33:22;100269.72;;;18.50;100.00
54455;BME280;40364;52.270;10.546;2022-10-16T04:35:48;100266.75;;;19.25;100.00
54455;BME280;40364;52.270;10.546;2022-10-16T04:38:15;100271.34;;;17.98;100.00
54455;BME280;40364;52.270;10.546;2022-10-16T04:40:42;100275.38;;;17.94;100.00
54455;BME280;40364;52.270;10.546;2022-10-16T04:43:09;100282.25;;;18.03;100.00
54455;BME280;40364;52.270;10.546;2022-10-16T04:45:37;100283.47;;;18.34;100.00
54455;BME280;40364;52.270;10.546;2022-10-16T04:48:03;100286.28;;;18.24;100.00
54455;BME280;40364;52.270;10.546;2022-10-16T04:50:30;100272.56;;;18.15;100.00
54455;BME280;40364;52.270;10.546;2022-10-16T04:53:00;100271.75;;;18.39;100.00
54455;BME280;40364;52.270;10.546;2022-10-16T04:55:26;100275.00;;;18.27;100.00
54455;BME280;40364;52.270;10.546;2022-10-16T04:57:53;100287.06;;;18.17;100.00
54455;BME280;40364;52.270;10.546;2022-10-16T05:00:20;100288.25;;;18.37;100.00
54455;BME280;40364;52.270;10.546;2022-10-16T05:02:49;100273.78;;;18.17;100.00
54455;BME280;40364;52.270;10.546;2022-10-16T05:05:16;100247.56;;;18.49;100.00
54455;BME280;40364;52.270;10.546;2022-10-16T05:07:44;100257.63;;;18.68;100.00
54455;BME280;40364;52.270;10.546;2022-10-16T05:10:11;100277.41;;;18.32;100.00
54455;BME280;40364;52.270;10.546;2022-10-16T05:12:38;100283.03;;;18.46;100.00
54455;BME280;40364;52.270;10.546;2022-10-16T05:15:05;100288.66;;;18.11;100.00
54455;BME280;40364;52.270;10.546;2022-10-16T05:17:32;100289.38;;;19.07;100.00
54455;BME280;40364;52.270;10.546;2022-10-16T05:20:00;100299.19;;;18.64;100.00
54455;BME280;40364;52.270;10.546;2022-10-16T05:22:27;100307.59;;;18.71;100.00
54455;BME280;40364;52.270;10.546;2022-10-16T05:24:54;100309.25;;;18.65;100.00
54455;BME280;40364;52.270;10.546;2022-10-16T05:27:20;100302.75;;;18.93;100.00
54455;BME280;40364;52.270;10.546;2022-10-16T05:29:48;100311.06;;;19.35;100.00
54455;BME280;40364;52.270;10.546;2022-10-16T05:32:15;100309.94;;;19.22;100.00
54455;BME280;40364;52.270;10.546;2022-10-16T05:34:42;100299.84;;;19.21;100.00
54455;BME280;40364;52.270;10.546;2022-10-16T05:37:11;100298.56;;;19.36;100.00
54455;BME280;40364;52.270;10.546;2022-10-16T05:39:38;100296.25;;;19.06;100.00
54455;BME280;40364;52.270;10.546;2022-10-16T05:42:05;100316.06;;;18.71;100.00
54455;BME280;40364;52.270;10.546;2022-10-16T05:44:32;100310.84;;;18.59;100.00
54455;BME280;40364;52.270;10.546;2022-10-16T05:46:59;100305.56;;;18.93;100.00
54455;BME280;40364;52.270;10.546;2022-10-16T05:49:26;100311.16;;;19.14;100.00
54455;BME280;40364;52.270;10.546;2022-10-16T05:51:52;100312.03;;;18.93;100.00
54455;BME280;40364;52.270;10.546;2022-10-16T05:54:20;100315.66;;;18.87;100.00
54455;BME280;40364;52.270;10.546;2022-10-16T05:56:47;100330.56;;;18.76;100.00
54455;BME280;40364;52.270;10.546;2022-10-16T05:59:13;100328.97;;;18.50;100.00
54455;BME280;40364;52.270;10.546;2022-10-16T06:01:40;100331.81;;;18.65;100.00
54455;BME280;40364;52.270;10.546;2022-10-16T06:04:07;100348.31;;;18.84;100.00
54455;BME280;40364;52.270;10.546;2022-10-16T06:06:34;100347.91;;;18.89;100.00
54455;BME280;40364;52.270;10.546;2022-10-16T06:09:02;100349.88;;;18.96;100.00
54455;BME280;40364;52.270;10.546;2022-10-16T06:11:31;100352.72;;;18.99;100.00
54455;BME280;40364;52.270;10.546;2022-10-16T06:14:00;100351.09;;;19.12;100.00
54455;BME280;40364;52.270;10.546;2022-10-16T06:16:32;100361.97;;;19.14;100.00
54455;BME280;40364;52.270;10.546;2022-10-16T06:18:59;100354.66;;;19.27;100.00
54455;BME280;40364;52.270;10.546;2022-10-16T06:21:27;100364.72;;;19.53;100.00
54455;BME280;40364;52.270;10.546;2022-10-16T06:23:54;100374.78;;;19.54;100.00
54455;BME280;40364;52.270;10.546;2022-10-16T06:26:23;100363.84;;;19.60;100.00
54455;BME280;40364;52.270;10.546;2022-10-16T06:28:51;100361.06;;;19.45;100.00
54455;BME280;40364;52.270;10.546;2022-10-16T06:31:18;100353.03;;;19.37;100.00
54455;BME280;40364;52.270;10.546;2022-10-16T06:33:50;100359.50;;;19.27;100.00
54455;BME280;40364;52.270;10.546;2022-10-16T06:36:18;100366.81;;;19.03;100.00
54455;BME280;40364;52.270;10.546;2022-10-16T06:38:45;100367.00;;;17.59;100.00
54455;BME280;40364;52.270;10.546;2022-10-16T06:41:14;100385.97;;;17.66;100.00
54455;BME280;40364;52.270;10.546;2022-10-16T06:43:42;100399.09;;;18.66;100.00
54455;BME280;40364;52.270;10.546;2022-10-16T06:46:13;100387.81;;;18.66;100.00
54455;BME280;40364;52.270;10.546;2022-10-16T06:48:40;100393.16;;;23.38;86.96
54455;BME280;40364;52.270;10.546;2022-10-16T06:51:09;100389.25;;;23.91;80.49
54455;BME280;40364;52.270;10.546;2022-10-16T06:53:40;100390.09;;;24.08;78.06
54455;BME280;40364;52.270;10.546;2022-10-16T06:56:08;100397.41;;;22.83;88.24
54455;BME280;40364;52.270;10.546;2022-10-16T06:58:35;100401.94;;;23.87;88.52
54455;BME280;40364;52.270;10.546;2022-10-16T07:01:03;100416.50;;;20.12;100.00
54455;BME280;40364;52.270;10.546;2022-10-16T07:03:31;100411.47;;;19.58;100.00
54455;BME280;40364;52.270;10.546;2022-10-16T07:06:01;100416.81;;;19.24;100.00
54455;BME280;40364;52.270;10.546;2022-10-16T07:08:31;100412.78;;;19.21;100.00
54455;BME280;40364;52.270;10.546;2022-10-16T07:11:00;100415.22;;;19.12;100.00
54455;BME280;40364;52.270;10.546;2022-10-16T07:13:27;100422.06;;;19.22;100.00
54455;BME280;40364;52.270;10.546;2022-10-16T07:15:54;100440.97;;;19.53;100.00
54455;BME280;40364;52.270;10.546;2022-10-16T07:18:21;100432.09;;;19.30;100.00
54455;BME280;40364;52.270;10.546;2022-10-16T07:20:52;100434.56;;;19.10;100.00
54455;BME280;40364;52.270;10.546;2022-10-16T07:23:19;100430.94;;;18.99;100.00
54455;BME280;40364;52.270;10.546;2022-10-16T07:25:54;100431.75;;;18.78;100.00
54455;BME280;40364;52.270;10.546;2022-10-16T07:28:22;100433.38;;;18.93;100.00
54455;BME280;40364;52.270;10.546;2022-10-16T07:30:49;100428.91;;;18.67;100.00
54455;BME280;40364;52.270;10.546;2022-10-16T07:33:16;100447.06;;;19.12;100.00
54455;BME280;40364;52.270;10.546;2022-10-16T07:35:50;100453.09;;;18.72;100.00
54455;BME280;40364;52.270;10.546;2022-10-16T07:38:18;100458.78;;;18.93;100.00
54455;BME280;40364;52.270;10.546;2022-10-16T07:40:45;100468.84;;;19.23;100.00
54455;BME280;40364;52.270;10.546;2022-10-16T07:43:12;100463.59;;;19.21;100.00
54455;BME280;40364;52.270;10.546;2022-10-16T07:45:47;100458.53;;;20.14;100.00
54455;BME280;40364;52.270;10.546;2022-10-16T07:48:15;100447.34;;;19.78;100.00
54455;BME280;40364;52.270;10.546;2022-10-16T07:50:43;100454.72;;;19.23;100.00
54455;BME280;40364;52.270;10.546;2022-10-16T07:53:11;100456.63;;;19.86;100.00
54455;BME280;40364;52.270;10.546;2022-10-16T07:55:40;100470.81;;;19.40;100.00
54455;BME280;40364;52.270;10.546;2022-10-16T07:58:10;100470.81;;;19.61;100.00
54455;BME280;40364;52.270;10.546;2022-10-16T08:00:37;100461.41;;;19.93;100.00
54455;BME280;40364;52.270;10.546;2022-10-16T08:03:04;100464.38;;;19.50;100.00
54455;BME280;40364;52.270;10.546;2022-10-16T08:05:32;100468.38;;;19.63;100.00
54455;BME280;40364;52.270;10.546;2022-10-16T08:08:02;100463.38;;;20.10;100.00
54455;BME280;40364;52.270;10.546;2022-10-16T08:10:29;100471.59;;;20.63;100.00
54455;BME280;40364;52.270;10.546;2022-10-16T08:12:58;100485.50;;;20.29;100.00
54455;BME280;40364;52.270;10.546;2022-10-16T08:15:25;100488.41;;;20.15;100.00
54455;BME280;40364;52.270;10.546;2022-10-16T08:17:57;100488.75;;;20.24;100.00
54455;BME280;40364;52.270;10.546;2022-10-16T08:20:25;100499.16;;;20.48;100.00
54455;BME280;40364;52.270;10.546;2022-10-16T08:22:52;100505.25;;;20.47;100.00
54455;BME280;40364;52.270;10.546;2022-10-16T08:25:20;100507.69;;;20.45;100.00
54455;BME280;40364;52.270;10.546;2022-10-16T08:27:47;100519.03;;;20.27;100.00
54455;BME280;40364;52.270;10.546;2022-10-16T08:30:18;100517.38;;;20.37;100.00
54455;BME280;40364;52.270;10.546;2022-10-16T08:32:53;100519.97;;;19.92;100.00
54455;BME280;40364;52.270;10.546;2022-10-16T08:35:20;100514.78;;;19.69;100.00
54455;BME280;40364;52.270;10.546;2022-10-16T08:37:47;100516.81;;;19.26;100.00
54455;BME280;40364;52.270;10.546;2022-10-16T08:40:18;100522.47;;;19.65;100.00
54455;BME280;40364;52.270;10.546;2022-10-16T08:43:01;100516.44;;;20.65;100.00
54455;BME280;40364;52.270;10.546;2022-10-16T08:45:48;100513.75;;;20.47;100.00
54455;BME280;40364;52.270;10.546;2022-10-16T08:48:24;100523.25;;;19.83;100.00
54455;BME280;40364;52.270;10.546;2022-10-16T08:50:54;100528.13;;;19.65;100.00
54455;BME280;40364;52.270;10.546;2022-10-16T08:53:24;100521.38;;;20.50;100.00
54455;BME280;40364;52.270;10.546;2022-10-16T08:55:54;100521.53;;;20.14;100.00
54455;BME280;40364;52.270;10.546;2022-10-16T08:58:22;100522.03;;;19.84;100.00
54455;BME280;40364;52.270;10.546;2022-10-16T09:00:54;100528.03;;;20.01;100.00
54455;BME280;40364;52.270;10.546;2022-10-16T09:03:30;100532.06;;;20.87;100.00
54455;BME280;40364;52.270;10.546;2022-10-16T09:06:24;100531.88;;;20.49;100.00
54455;BME280;40364;52.270;10.546;2022-10-16T09:09:03;100558.78;;;19.74;100.00
54455;BME280;40364;52.270;10.546;2022-10-16T09:11:41;100537.34;;;20.85;100.00
54455;BME280;40364;52.270;10.546;2022-10-16T09:14:23;100540.84;;;20.41;100.00
54455;BME280;40364;52.270;10.546;2022-10-16T09:17:11;100551.69;;;20.49;100.00
54455;BME280;40364;52.270;10.546;2022-10-16T09:19:46;100555.28;;;20.57;100.00
54455;BME280;40364;52.270;10.546;2022-10-16T09:22:16;100554.69;;;20.07;100.00
54455;BME280;40364;52.270;10.546;2022-10-16T09:24:44;100550.25;;;20.02;100.00
54455;BME280;40364;52.270;10.546;2022-10-16T09:27:12;100552.53;;;20.46;100.00
54455;BME280;40364;52.270;10.546;2022-10-16T09:29:40;100565.13;;;21.04;99.25
54455;BME280;40364;52.270;10.546;2022-10-16T09:32:11;100569.69;;;21.88;96.57
54455;BME280;40364;52.270;10.546;2022-10-16T09:34:42;100564.50;;;20.79;100.00
54455;BME280;40364;52.270;10.546;2022-10-16T09:37:13;100568.03;;;20.94;100.00
54455;BME280;40364;52.270;10.546;2022-10-16T09:39:44;100569.41;;;21.75;95.36
54455;BME280;40364;52.270;10.546;2022-10-16T09:42:14;100574.03;;;21.06;100.00
54455;BME280;40364;52.270;10.546;2022-10-16T09:44:47;100571.94;;;20.44;100.00
54455;BME280;40364;52.270;10.546;2022-10-16T09:47:18;100566.53;;;20.75;100.00
54455;BME280;40364;52.270;10.546;2022-10-16T09:49:53;100579.63;;;20.44;100.00
54455;BME280;40364;52.270;10.546;2022-10-16T09:52:22;100580.34;;;20.62;100.00
54455;BME280;40364;52.270;10.546;2022-10-16T09:54:50;100585.75;;;21.08;100.00
54455;BME280;40364;52.270;10.546;2022-10-16T09:57:17;100593.13;;;20.88;100.00
54455;BME280;40364;52.270;10.546;2022-10-16T09:59:48;100593.84;;;21.06;94.65
54455;BME280;40364;52.270;10.546;2022-10-16T10:02:18;100586.28;;;21.44;89.89
54455;BME280;40364;52.270;10.546;2022-10-16T10:04:49;100608.69;;;22.21;86.38
54455;BME280;40364;52.270;10.546;2022-10-16T10:07:23;100597.19;;;20.83;98.61
54455;BME280;40364;52.270;10.546;2022-10-16T10:09:51;100604.69;;;20.38;100.00
54455;BME280;40364;52.270;10.546;2022-10-16T10:12:21;100600.72;;;20.00;100.00
54455;BME280;40364;52.270;10.546;2022-10-16T10:14:49;100610.09;;;20.95;95.49
54455;BME280;40364;52.270;10.546;2022-10-16T10:17:20;100601.38;;;20.58;96.74
54455;BME280;40364;52.270;10.546;2022-10-16T10:19:49;100597.91;;;21.05;90.45
54455;BME280;40364;52.270;10.546;2022-10-16T10:22:39;100591.53;;;20.83;90.81
54455;BME280;40364;52.270;10.546;2022-10-16T10:25:18;100603.66;;;20.88;94.23
54455;BME280;40364;52.270;10.546;2022-10-16T10:28:09;100604.59;;;21.36;87.34
54455;BME280;40364;52.270;10.546;2022-10-16T10:30:46;100597.34;;;21.76;83.15
54455;BME280;40364;52.270;10.546;2022-10-16T10:33:25;100595.50;;;21.59;82.82
54455;BME280;40364;52.270;10.546;2022-10-16T10:36:01;100598.91;;;21.36;83.73
54455;BME280;40364;52.270;10.546;2022-10-16T10:38:36;100596.84;;;21.40;82.90
54455;BME280;40364;52.270;10.546;2022-10-16T10:41:18;100601.28;;;21.90;80.32
54455;BME280;40364;52.270;10.546;2022-10-16T10:43:56;100604.47;;;22.33;78.68
54455;BME280;40364;52.270;10.546;2022-10-16T10:46:32;100609.66;;;22.41;77.10
54455;BME280;40364;52.270;10.546;2022-10-16T10:49:15;100615.66;;;22.13;74.00
54455;BME280;40364;52.270;10.546;2022-10-16T10:51:51;100606.16;;;21.89;73.07
54455;BME280;40364;52.270;10.546;2022-10-16T10:54:26;100616.91;;;22.46;70.57
54455;BME280;40364;52.270;10.546;2022-10-16T10:56:58;100614.38;;;21.25;73.25
54455;BME280;40364;52.270;10.546;2022-10-16T10:59:51;100605.00;;;21.79;71.32
54455;BME280;40364;52.270;10.546;2022-10-16T11:02:29;100614.53;;;22.03;70.83
54455;BME280;40364;52.270;10.546;2022-10-16T11:05:23;100613.47;;;22.28;70.00
54455;BME280;40364;52.270;10.546;2022-10-16T11:07:55;100624.25;;;22.74;65.64
54455;BME280;40364;52.270;10.546;2022-10-16T11:10:30;100625.03;;;23.08;62.67
54455;BME280;40364;52.270;10.546;2022-10-16T11:13:04;100631.41;;;22.89;59.02
54455;BME280;40364;52.270;10.546;2022-10-16T11:15:37;100646.53;;;23.09;57.92
54455;BME280;40364;52.270;10.546;2022-10-16T11:18:10;100633.69;;;22.64;56.62
54455;BME280;40364;52.270;10.546;2022-10-16T11:20:42;100636.06;;;23.83;54.13
54455;BME280;40364;52.270;10.546;2022-10-16T11:23:16;100643.19;;;23.92;51.58
54455;BME280;40364;52.270;10.546;2022-10-16T11:25:45;100649.91;;;24.68;48.75
54455;BME280;40364;52.270;10.546;2022-10-16T11:28:16;100654.63;;;24.94;47.65
54455;BME280;40364;52.270;10.546;2022-10-16T11:30:49;100649.53;;;24.85;47.29
54455;BME280;40364;52.270;10.546;2022-10-16T11:33:25;100666.03;;;24.94;46.38
54455;BME280;40364;52.270;10.546;2022-10-16T11:36:02;100654.94;;;24.17;48.95
54455;BME280;40364;52.270;10.546;2022-10-16T11:38:34;100661.44;;;24.61;48.81
54455;BME280;40364;52.270;10.546;2022-10-16T11:41:18;100670.28;;;24.86;47.86
54455;BME280;40364;52.270;10.546;2022-10-16T11:43:52;100671.50;;;24.85;47.32
54455;BME280;40364;52.270;10.546;2022-10-16T11:46:26;100664.28;;;26.92;43.21
54455;BME280;40364;52.270;10.546;2022-10-16T11:48:57;100665.28;;;26.43;43.67
54455;BME280;40364;52.270;10.546;2022-10-16T11:51:32;100660.41;;;26.11;44.77
54455;BME280;40364;52.270;10.546;2022-10-16T11:54:07;100680.75;;;24.73;48.30
54455;BME280;40364;52.270;10.546;2022-10-16T11:56:38;100673.38;;;25.31;47.22
54455;BME280;40364;52.270;10.546;2022-10-16T11:59:11;100688.41;;;24.76;48.05
54455;BME280;40364;52.270;10.546;2022-10-16T12:01:44;100675.88;;;23.83;51.86
54455;BME280;40364;52.270;10.546;2022-10-16T12:04:18;100674.13;;;24.13;49.88
54455;BME280;40364;52.270;10.546;2022-10-16T12:06:52;100670.78;;;23.71;51.12
54455;BME280;40364;52.270;10.546;2022-10-16T12:09:25;100682.53;;;24.43;50.07
54455;BME280;40364;52.270;10.546;2022-10-16T12:11:53;100675.88;;;25.81;47.01
54455;BME280;40364;52.270;10.546;2022-10-16T12:14:37;100680.78;;;25.81;46.82
54455;BME280;40364;52.270;10.546;2022-10-16T12:17:23;100683.59;;;26.13;46.28
54455;BME280;40364;52.270;10.546;2022-10-16T12:20:01;100692.09;;;24.53;49.33
54455;BME280;40364;52.270;10.546;2022-10-16T12:22:48;100694.06;;;24.99;48.50
54455;BME280;40364;52.270;10.546;2022-10-16T12:25:25;100700.31;;;25.10;48.11
54455;BME280;40364;52.270;10.546;2022-10-16T12:27:59;100709.22;;;25.84;47.33
54455;BME280;40364;52.270;10.546;2022-10-16T12:30:28;100702.72;;;26.62;45.05
54455;BME280;40364;52.270;10.546;2022-10-16T12:32:56;100696.38;;;26.09;45.01
54455;BME280;40364;52.270;10.546;2022-10-16T12:35:26;100692.75;;;26.54;45.09
54455;BME280;40364;52.270;10.546;2022-10-16T12:38:05;100692.75;;;27.37;42.54
54455;BME280;40364;52.270;10.546;2022-10-16T12:40:35;100689.31;;;27.16;43.35
54455;BME280;40364;52.270;10.546;2022-10-16T12:43:12;100686.59;;;26.55;43.40
54455;BME280;40364;52.270;10.546;2022-10-16T12:45:39;100693.34;;;25.67;45.58
54455;BME280;40364;52.270;10.546;2022-10-16T12:48:19;100688.47;;;26.74;43.69
54455;BME280;40364;52.270;10.546;2022-10-16T12:50:46;100694.03;;;26.65;43.57